Aviation Digital Data Service (ADDS)

Output produced by METARs form (0627 UTC 16 December 2018)
found at http://aviationweather.gov/metar/data/
 
KVNY 160532Z 1606/1706 VRB03KT P6SM SKC 
     FM162200 15007KT P6SM SCT200 
     FM170400 VRB03KT P6SM BKN150